createdAt,value
2022-12-08T00:00:03.075Z,91.5
2022-12-08T00:03:03.434Z,91.5
2022-12-08T00:06:02.987Z,91.5
2022-12-08T00:09:03.008Z,91.5
2022-12-08T00:12:02.932Z,91.3
2022-12-08T00:15:03.923Z,91.3
2022-12-08T00:18:02.993Z,91.3
2022-12-08T00:21:03.123Z,91.3
2022-12-08T00:24:02.978Z,91.3
2022-12-08T00:27:02.938Z,91.3
2022-12-08T00:30:03.016Z,91.3
2022-12-08T00:33:02.982Z,91.3
2022-12-08T00:36:03.023Z,91.3
2022-12-08T00:39:02.961Z,91.5
2022-12-08T00:42:03.008Z,91.5
2022-12-08T00:45:02.977Z,91.5
2022-12-08T00:48:02.993Z,91.5
2022-12-08T00:51:03.043Z,91.5
2022-12-08T00:54:02.970Z,91.5
2022-12-08T00:57:02.959Z,91.5
2022-12-08T01:00:03.641Z,91.5
2022-12-08T01:03:03.310Z,91.5
2022-12-08T01:06:02.962Z,91.5
2022-12-08T01:09:03.027Z,91.5
2022-12-08T01:12:03.004Z,91.5
2022-12-08T01:15:05.296Z,91.5
2022-12-08T01:18:02.943Z,91.5
2022-12-08T01:21:02.982Z,91.5
2022-12-08T01:24:02.960Z,91.5
2022-12-08T01:27:02.953Z,91.5
2022-12-08T01:30:03.524Z,91.5
2022-12-08T01:33:02.949Z,91.5
2022-12-08T01:36:03.040Z,91.5
2022-12-08T01:39:02.952Z,91.5
2022-12-08T01:42:02.995Z,91.5
2022-12-08T01:45:03.047Z,91.2
2022-12-08T01:48:03.297Z,91.2
2022-12-08T01:51:02.998Z,91.2
2022-12-08T01:54:03.026Z,91.2
2022-12-08T01:57:02.981Z,91.2
2022-12-08T02:00:03.613Z,91.2
2022-12-08T02:03:03.336Z,91.2
2022-12-08T02:06:03.058Z,91.2
2022-12-08T02:09:02.963Z,91.2
2022-12-08T02:12:03.037Z,91.2
2022-12-08T02:15:07.950Z,91.2
2022-12-08T02:18:02.950Z,91.2
2022-12-08T02:21:02.909Z,91.2
2022-12-08T02:24:02.960Z,91.2
2022-12-08T02:27:02.998Z,90.8
2022-12-08T02:30:03.827Z,90.8
2022-12-08T02:33:02.913Z,90.9
2022-12-08T02:36:02.979Z,90.9
2022-12-08T02:39:02.981Z,90.9
2022-12-08T02:42:02.990Z,90.9
2022-12-08T02:45:03.089Z,90.9
2022-12-08T02:48:02.962Z,90.9
2022-12-08T02:51:02.913Z,90.9
2022-12-08T02:54:02.940Z,90.9
2022-12-08T02:57:02.953Z,90.5
2022-12-08T03:00:03.757Z,90.5
2022-12-08T03:03:03.184Z,90.5
2022-12-08T03:06:02.955Z,90.5
2022-12-08T03:09:02.921Z,90.5
2022-12-08T03:12:02.982Z,90.5
2022-12-08T03:15:02.991Z,90.5
2022-12-08T03:18:03.068Z,90.5
2022-12-08T03:21:03.144Z,90.5
2022-12-08T03:24:02.999Z,90.5
2022-12-08T03:27:02.996Z,90.3
2022-12-08T03:30:03.664Z,90.3
2022-12-08T03:33:02.981Z,90.2
2022-12-08T03:36:02.947Z,90.2
2022-12-08T03:39:02.941Z,90.2
2022-12-08T03:42:02.923Z,90.2
2022-12-08T03:45:02.982Z,90.2
2022-12-08T03:48:02.943Z,90.2
2022-12-08T03:51:03.008Z,90.2
2022-12-08T03:54:02.917Z,90.2
2022-12-08T03:57:03.021Z,90.2
2022-12-08T04:00:03.496Z,90.2
2022-12-08T04:03:03.103Z,90.2
2022-12-08T04:06:02.967Z,90.2
2022-12-08T04:09:02.956Z,90.2
2022-12-08T04:12:02.933Z,90.2
2022-12-08T04:15:02.977Z,90.2
2022-12-08T04:18:02.957Z,90
2022-12-08T04:21:02.999Z,90
2022-12-08T04:24:03.998Z,90
2022-12-08T04:27:03.016Z,90
2022-12-08T04:30:03.309Z,90
2022-12-08T04:33:03.013Z,90
2022-12-08T04:36:03.032Z,90
2022-12-08T04:39:02.958Z,90
2022-12-08T04:42:02.967Z,90
2022-12-08T04:45:02.973Z,90
2022-12-08T04:48:03.020Z,90
2022-12-08T04:51:02.930Z,90
2022-12-08T04:54:03.013Z,90
2022-12-08T04:57:02.979Z,90
2022-12-08T05:00:03.527Z,90
2022-12-08T05:03:03.298Z,90
2022-12-08T05:06:02.973Z,90
2022-12-08T05:09:02.940Z,90
2022-12-08T05:12:02.982Z,90
2022-12-08T05:15:03.024Z,90
2022-12-08T05:18:02.964Z,90
2022-12-08T05:21:02.988Z,90
2022-12-08T05:24:02.934Z,90
2022-12-08T05:27:02.944Z,90
2022-12-08T05:30:03.334Z,90
2022-12-08T05:33:02.961Z,90
2022-12-08T05:36:02.957Z,90
2022-12-08T05:39:02.935Z,90
2022-12-08T05:42:02.966Z,90
2022-12-08T05:45:03.156Z,89.9
2022-12-08T05:48:02.955Z,89.9
2022-12-08T05:51:02.952Z,89.9
2022-12-08T05:54:03.000Z,89.9
2022-12-08T05:57:02.897Z,89.9
2022-12-08T06:00:03.589Z,89.9
2022-12-08T06:03:03.641Z,89.9
2022-12-08T06:06:02.969Z,89.5
2022-12-08T06:09:02.932Z,89.5
2022-12-08T06:12:02.979Z,89.5
2022-12-08T06:15:02.924Z,89.5
2022-12-08T06:18:02.957Z,89.5
2022-12-08T06:21:02.904Z,89.5
2022-12-08T06:24:02.978Z,89.5
2022-12-08T06:27:02.941Z,89.5
2022-12-08T06:30:03.406Z,89.5
2022-12-08T06:33:02.930Z,89.5
2022-12-08T06:36:03.002Z,89.5
2022-12-08T06:39:02.951Z,89.5
2022-12-08T06:42:02.937Z,89.5
2022-12-08T06:45:02.897Z,89.5
2022-12-08T06:48:03.011Z,89.5
2022-12-08T06:51:02.908Z,89.5
2022-12-08T06:54:02.913Z,89.5
2022-12-08T06:57:02.913Z,89.5
2022-12-08T07:00:03.531Z,89.5
2022-12-08T07:03:03.141Z,89.5
2022-12-08T07:06:07.037Z,89.9
2022-12-08T07:09:02.960Z,89.9
2022-12-08T07:12:02.945Z,89.9
2022-12-08T07:15:03.004Z,89.9
2022-12-08T07:18:03.301Z,89.9
2022-12-08T07:21:02.995Z,89.9
2022-12-08T07:24:03.022Z,89.9
2022-12-08T07:27:02.979Z,89.9
2022-12-08T07:30:03.288Z,89.9
2022-12-08T07:33:02.994Z,89.9
2022-12-08T07:36:03.034Z,89.9
2022-12-08T07:39:03.072Z,89.9
2022-12-08T07:42:03.019Z,89.9
2022-12-08T07:45:03.080Z,89.9
2022-12-08T07:48:02.962Z,89.9
2022-12-08T07:51:03.005Z,89.9
2022-12-08T07:54:02.998Z,89.9
2022-12-08T07:57:03.064Z,89.9
2022-12-08T08:00:03.381Z,89.9
2022-12-08T08:03:03.181Z,89.9
2022-12-08T08:06:02.966Z,91.3
2022-12-08T08:09:02.989Z,91.3
2022-12-08T08:12:33.675Z,91.3
2022-12-08T08:15:03.068Z,91.3
2022-12-08T08:18:03.015Z,91.3
2022-12-08T08:21:46.760Z,91.3
2022-12-08T08:24:03.027Z,91.3
2022-12-08T08:27:03.003Z,91.3
2022-12-08T08:30:04.581Z,91.3
2022-12-08T08:33:02.948Z,91.3
2022-12-08T08:36:03.026Z,91.3
2022-12-08T08:39:02.962Z,91.3
2022-12-08T08:42:03.049Z,91.7
2022-12-08T08:45:03.133Z,91.7
2022-12-08T08:48:02.995Z,91.7
2022-12-08T08:51:02.959Z,91.7
2022-12-08T08:54:03.021Z,91.7
2022-12-08T08:57:03.069Z,91.7
2022-12-08T09:00:03.690Z,91.8
2022-12-08T09:03:02.972Z,91.8
2022-12-08T09:06:03.246Z,91.8
2022-12-08T09:09:02.975Z,91.8
2022-12-08T09:12:02.968Z,91.8
2022-12-08T09:15:02.985Z,91.8
2022-12-08T09:18:02.989Z,91.8
2022-12-08T09:21:02.996Z,91.8
2022-12-08T09:24:02.952Z,91.8
2022-12-08T09:27:03.061Z,91.8
2022-12-08T09:30:04.617Z,91.8
2022-12-08T09:33:03.051Z,91.8
2022-12-08T09:36:02.992Z,91.8
2022-12-08T09:39:02.978Z,91.8
2022-12-08T09:42:02.991Z,91.8
2022-12-08T09:45:03.012Z,91.8
2022-12-08T09:48:03.043Z,91.8
2022-12-08T09:51:03.012Z,91.8
2022-12-08T09:54:03.043Z,91.8
2022-12-08T09:57:03.020Z,91.8
2022-12-08T10:00:03.328Z,91.8
2022-12-08T10:03:03.042Z,91.8
2022-12-08T10:06:03.178Z,91.8
2022-12-08T10:09:03.037Z,91.8
2022-12-08T10:12:02.968Z,91.8
2022-12-08T10:15:03.068Z,91.8
2022-12-08T10:18:02.965Z,91.8
2022-12-08T10:21:03.005Z,91.8
2022-12-08T10:24:02.994Z,91.8
2022-12-08T10:27:02.970Z,91.8
2022-12-08T10:30:03.444Z,91.8
2022-12-08T10:33:03.029Z,91.8
2022-12-08T10:36:03.100Z,91.8
2022-12-08T10:39:02.949Z,91.8
2022-12-08T10:42:03.001Z,91.8
2022-12-08T10:45:03.024Z,91.8
2022-12-08T10:48:02.993Z,91.8
2022-12-08T10:51:03.065Z,91.3
2022-12-08T10:54:03.038Z,91.3
2022-12-08T10:57:03.084Z,91.3
2022-12-08T11:00:03.695Z,91.3
2022-12-08T11:03:03.295Z,91.3
2022-12-08T11:06:13.053Z,91.3
2022-12-08T11:09:02.970Z,91.3
2022-12-08T11:12:02.991Z,91.3
2022-12-08T11:15:03.068Z,91.3
2022-12-08T11:18:03.027Z,91.3
2022-12-08T11:21:02.982Z,91.3
2022-12-08T11:24:03.006Z,91.3
2022-12-08T11:27:02.937Z,91.3
2022-12-08T11:30:03.370Z,91.3
2022-12-08T11:33:03.080Z,90.7
2022-12-08T11:36:03.021Z,90.7
2022-12-08T11:39:03.098Z,90.7
2022-12-08T11:42:03.022Z,90.7
2022-12-08T11:45:03.522Z,90.7
2022-12-08T11:51:02.968Z,90.6
2022-12-08T11:54:03.073Z,90.6
2022-12-08T11:57:02.992Z,90.6
2022-12-08T12:00:03.182Z,90.6
2022-12-08T12:03:03.267Z,90.6
2022-12-08T12:06:55.657Z,90.6
2022-12-08T12:09:03.051Z,90.6
2022-12-08T12:12:03.011Z,90.6
2022-12-08T12:15:02.972Z,90.6
2022-12-08T12:18:03.043Z,90.6
2022-12-08T12:21:02.960Z,90.6
2022-12-08T12:24:02.969Z,90.6
2022-12-08T12:27:03.020Z,90.6
2022-12-08T12:30:03.129Z,90.6
2022-12-08T12:33:03.013Z,90.6
2022-12-08T12:36:03.102Z,90.6
2022-12-08T12:39:03.086Z,90.6
2022-12-08T12:42:03.043Z,90.6
2022-12-08T12:45:03.044Z,90.9
2022-12-08T12:48:03.038Z,90.9
2022-12-08T12:51:02.971Z,90.9
2022-12-08T12:54:03.044Z,90.9
2022-12-08T12:57:03.001Z,90.9
2022-12-08T13:00:03.100Z,90.9
2022-12-08T13:03:03.332Z,90.9
2022-12-08T13:06:03.022Z,90.9
2022-12-08T13:09:03.140Z,90.9
2022-12-08T13:12:03.009Z,90.9
2022-12-08T13:15:03.056Z,90.9
2022-12-08T13:18:03.080Z,90.9
2022-12-08T13:21:03.057Z,90.9
2022-12-08T13:24:03.187Z,90.9
2022-12-08T13:27:02.934Z,90.9
2022-12-08T13:30:03.528Z,90.9
2022-12-08T13:33:21.694Z,90.9
2022-12-08T13:36:03.007Z,90.9
2022-12-08T13:39:02.997Z,90.9
2022-12-08T13:42:03.151Z,90
2022-12-08T13:49:09.864Z,90
2022-12-08T13:57:14.463Z,90
2022-12-08T14:00:03.092Z,90
2022-12-08T14:03:03.137Z,90
2022-12-08T14:06:16.054Z,90
2022-12-08T14:09:13.461Z,90
2022-12-08T14:12:03.006Z,89.7
2022-12-08T14:15:06.976Z,89.7
2022-12-08T14:18:02.999Z,89.7
2022-12-08T14:21:23.956Z,89.7
2022-12-08T14:24:03.324Z,89.7
2022-12-08T14:27:03.059Z,89.7
2022-12-08T14:30:03.073Z,89.7
2022-12-08T14:33:03.004Z,89.7
2022-12-08T14:36:03.034Z,89.3
2022-12-08T14:39:03.030Z,89.3
2022-12-08T14:42:03.047Z,89.3
2022-12-08T14:45:03.081Z,89.3
2022-12-08T14:48:03.043Z,89.3
2022-12-08T14:51:03.030Z,89.3
2022-12-08T14:54:03.482Z,89.3
2022-12-08T14:57:03.061Z,89.3
2022-12-08T15:00:03.186Z,89.3
2022-12-08T15:03:03.003Z,89.3
2022-12-08T15:06:03.024Z,89.3
2022-12-08T15:09:02.981Z,89.3
2022-12-08T15:12:02.945Z,89.3
2022-12-08T15:15:02.975Z,89.3
2022-12-08T15:18:03.006Z,89.3
2022-12-08T15:21:03.006Z,89.3
2022-12-08T15:24:02.988Z,89.3
2022-12-08T15:27:02.979Z,88.2
2022-12-08T15:30:03.260Z,88.6
2022-12-08T15:33:03.007Z,88.6
2022-12-08T15:36:02.958Z,88.6
2022-12-08T15:39:02.949Z,88.6
2022-12-08T15:42:02.982Z,88.6
2022-12-08T15:45:02.949Z,88.6
2022-12-08T15:48:03.060Z,88.6
2022-12-08T15:51:02.950Z,87.7
2022-12-08T15:54:02.961Z,87.7
2022-12-08T15:58:17.362Z,87.7
2022-12-08T16:00:03.488Z,87.7
2022-12-08T16:09:16.018Z,87.7
2022-12-08T16:12:12.215Z,87.7
2022-12-08T16:18:03.025Z,87.7
2022-12-08T16:22:44.750Z,87.7
2022-12-08T16:24:11.596Z,87.7
2022-12-08T16:30:03.099Z,88.1
2022-12-08T16:33:02.912Z,88.1
2022-12-08T16:36:03.045Z,88.1
2022-12-08T16:39:02.924Z,88.1
2022-12-08T16:42:03.006Z,88.1
2022-12-08T16:45:03.384Z,88.1
2022-12-08T16:48:02.909Z,88.1
2022-12-08T16:51:02.980Z,88.1
2022-12-08T16:54:02.985Z,88.1
2022-12-08T16:57:02.964Z,88.1
2022-12-08T17:00:03.357Z,88.1
2022-12-08T17:03:02.929Z,88.1
2022-12-08T17:06:02.970Z,88.1
2022-12-08T17:09:03.033Z,88.1
2022-12-08T17:12:06.754Z,88.1
2022-12-08T17:15:03.336Z,88.1
2022-12-08T17:18:03.230Z,88.1
2022-12-08T17:21:02.932Z,88.1
2022-12-08T17:24:02.951Z,88.1
2022-12-08T17:27:03.062Z,88.1
2022-12-08T17:30:03.116Z,88.5
2022-12-08T17:33:02.989Z,88.5
2022-12-08T17:36:02.961Z,88.5
2022-12-08T17:39:03.022Z,88.5
2022-12-08T17:42:02.952Z,88.5
2022-12-08T17:45:03.177Z,88.5
2022-12-08T17:48:02.950Z,88.5
2022-12-08T17:51:02.988Z,88.5
2022-12-08T17:54:02.941Z,88.5
2022-12-08T17:57:03.034Z,88.5
2022-12-08T18:00:03.198Z,88.5
2022-12-08T18:03:03.048Z,88.5
2022-12-08T18:06:02.918Z,88.5
2022-12-08T18:09:03.060Z,88.5
2022-12-08T18:12:02.982Z,88.5
2022-12-08T18:15:02.989Z,88.5
2022-12-08T18:18:03.019Z,88.5
2022-12-08T18:21:02.962Z,88.5
2022-12-08T18:24:03.017Z,88.5
2022-12-08T18:27:02.998Z,88.5
2022-12-08T18:30:03.225Z,88.5
2022-12-08T18:33:03.066Z,88.5
2022-12-08T18:36:03.038Z,88.5
2022-12-08T18:39:12.441Z,88.5
2022-12-08T18:42:02.967Z,88.5
2022-12-08T18:45:02.955Z,88.5
2022-12-08T18:48:02.953Z,88.5
2022-12-08T18:51:02.958Z,88.5
2022-12-08T18:54:03.008Z,88.5
2022-12-08T18:57:02.951Z,88.5
2022-12-08T19:00:03.324Z,88.5
2022-12-08T19:03:03.111Z,88.5
2022-12-08T19:06:02.970Z,88.5
2022-12-08T19:09:03.094Z,88.5
2022-12-08T19:12:03.030Z,88.5
2022-12-08T19:15:03.138Z,88.5
2022-12-08T19:18:02.989Z,88.5
2022-12-08T19:21:03.142Z,88.5
2022-12-08T19:24:03.008Z,88.5
2022-12-08T19:27:03.015Z,88.5
2022-12-08T19:30:03.032Z,88.5
2022-12-08T19:33:02.964Z,88.5
2022-12-08T19:36:02.931Z,88.5
2022-12-08T19:39:02.982Z,90.7
2022-12-08T19:42:02.994Z,90.7
2022-12-08T19:45:02.965Z,90.7
2022-12-08T19:48:02.968Z,90.7
2022-12-08T19:51:02.993Z,90.7
2022-12-08T19:54:03.001Z,90.7
2022-12-08T19:57:02.956Z,90.7
2022-12-08T20:00:02.947Z,90.7
2022-12-08T20:03:03.130Z,90.7
2022-12-08T20:06:03.058Z,90.7
2022-12-08T20:09:02.992Z,90.6
2022-12-08T20:12:03.059Z,90.6
2022-12-08T20:15:03.064Z,90.6
2022-12-08T20:18:02.996Z,90.6
2022-12-08T20:21:02.975Z,90.6
2022-12-08T20:24:02.976Z,90.6
2022-12-08T20:27:03.078Z,90.6
2022-12-08T20:30:03.001Z,90.6
2022-12-08T20:33:03.053Z,90.6
2022-12-08T20:36:03.082Z,90.6
2022-12-08T20:39:03.020Z,90.6
2022-12-08T20:42:02.947Z,90.6
2022-12-08T20:45:03.219Z,90.6
2022-12-08T20:48:03.033Z,90.6
2022-12-08T20:51:03.291Z,90.6
2022-12-08T20:54:03.175Z,89.1
2022-12-08T20:57:03.046Z,89.1
2022-12-08T21:00:03.750Z,89.1
2022-12-08T21:03:03.944Z,88.7
2022-12-08T21:06:03.261Z,88.7
2022-12-08T21:09:03.430Z,88.7
2022-12-08T21:12:03.137Z,88.7
2022-12-08T21:15:03.278Z,88.7
2022-12-08T21:18:03.538Z,88.7
2022-12-08T21:21:03.013Z,88.7
2022-12-08T21:24:03.483Z,88.7
2022-12-08T21:27:03.262Z,88.7
2022-12-08T21:30:03.755Z,88.2
2022-12-08T21:33:03.494Z,88.2
2022-12-08T21:36:03.256Z,88.2
2022-12-08T21:39:03.388Z,88.2
2022-12-08T21:42:03.218Z,88.2
2022-12-08T21:45:03.807Z,88.2
2022-12-08T21:48:13.283Z,88.2
2022-12-08T21:51:03.221Z,88.2
2022-12-08T21:54:03.373Z,88.2
2022-12-08T21:57:03.434Z,88.2
2022-12-08T22:00:03.536Z,88.2
2022-12-08T22:03:03.522Z,88
2022-12-08T22:06:03.246Z,88
2022-12-08T22:09:03.703Z,88
2022-12-08T22:12:03.237Z,88
2022-12-08T22:15:03.314Z,87.9
2022-12-08T22:18:03.672Z,87.9
2022-12-08T22:21:03.283Z,87.9
2022-12-08T22:24:03.336Z,87.9
2022-12-08T22:27:03.529Z,87.9
2022-12-08T22:30:03.722Z,87.9
2022-12-08T22:33:03.344Z,87.9
2022-12-08T22:36:13.052Z,87.9
2022-12-08T22:39:03.146Z,87.9
2022-12-08T22:42:03.499Z,87.9
2022-12-08T22:45:03.483Z,87.9
2022-12-08T22:48:03.361Z,87.9
2022-12-08T22:51:03.175Z,87.9
2022-12-08T22:54:03.407Z,87.9
2022-12-08T22:57:03.048Z,87.9
2022-12-08T23:00:03.957Z,87
2022-12-08T23:03:03.301Z,87
2022-12-08T23:06:03.707Z,87
2022-12-08T23:09:03.393Z,87
2022-12-08T23:12:03.013Z,87
2022-12-08T23:15:03.079Z,87
2022-12-08T23:18:03.546Z,87
2022-12-08T23:21:03.215Z,87
2022-12-08T23:24:03.205Z,87
2022-12-08T23:27:03.352Z,87
2022-12-08T23:30:03.430Z,87
2022-12-08T23:33:03.701Z,87
2022-12-08T23:36:03.100Z,87
2022-12-08T23:39:03.287Z,87
2022-12-08T23:42:03.137Z,87
2022-12-08T23:45:03.338Z,87
2022-12-08T23:48:03.193Z,87
2022-12-08T23:51:03.432Z,87
2022-12-08T23:54:03.527Z,87
2022-12-08T23:57:03.260Z,88.9
